Time;durP1;ratioP1;P1;durP2;ratioP2;P2;SDS_P1;SDS_P2;PMS_P1;PMS_P2;Temp;Humidity;BMP_temperature;BMP_pressure;BME280_temperature;BME280_humidity;BME280_pressure;Samples;Min_cycle;Max_cycle;Signal;HPM_P1;HPM_P2
2022/04/29 00:01:38;;;;;;;;;;;;;;;;;;5056237;28;20262;-76
2022/04/29 00:04:24;;;;;;;;;;;;;;;;;;5043559;28;19940;-76
2022/04/29 00:07:11;;;;;;;;;;;;;;;;;;5030762;28;19932;-76
2022/04/29 00:09:57;;;;;;;;;;;;;;;;;;5033329;28;20503;-75
2022/04/29 00:12:44;;;;;;;;;;;;;;;;;;5055837;28;19921;-78
2022/04/29 00:15:30;;;;;;;;;;;;;;;;;;5044079;28;19999;-77
2022/04/29 00:18:17;;;;;;;;;;;;;;;;;;5043212;28;20273;-76
2022/04/29 00:21:04;;;;;;;;;;;;;;;;;;5033258;28;19920;-76
2022/04/29 00:23:51;;;;;;;;;;;;;;;;;;5045768;28;19912;-77
2022/04/29 00:26:37;;;;;;;;;;;;;;;;;;5040538;28;19913;-77
2022/04/29 00:29:24;;;;;;;;;;;;;;;;;;5036715;28;19917;-77
2022/04/29 00:32:10;;;;;;;;;;;;;;;;;;5034739;28;19925;-77
2022/04/29 00:34:57;;;;;;;;;;;;;;;;;;5039901;28;19917;-77
2022/04/29 00:37:44;;;;;;;;;;;;;;;;;;5053289;28;20393;-77
2022/04/29 00:40:30;;;;;;;;;;;;;;;;;;5046576;28;19917;-77
2022/04/29 00:43:17;;;;;;;;;;;;;;;;;;5036669;28;19909;-77
2022/04/29 00:46:03;;;;;;;;;;;;;;;;;;5063131;28;19920;-77
2022/04/29 00:48:49;;;;;;;;;;;;;;;;;;5050302;28;19948;-77
2022/04/29 00:51:36;;;;;;;;;;;;;;;;;;5045039;28;19909;-77
2022/04/29 00:54:22;;;;;;;;;;;;;;;;;;5044843;28;19920;-77
2022/04/29 00:57:09;;;;;;;;;;;;;;;;;;5048281;28;19920;-77
2022/04/29 00:59:55;;;;;;;;;;;;;;;;;;5044864;28;19916;-77
2022/04/29 01:02:42;;;;;;;;;;;;;;;;;;5035290;28;20246;-77
2022/04/29 01:05:28;;;;;;;;;;;;;;;;;;5049609;28;19924;-76
2022/04/29 01:08:15;;;;;;;;;;;;;;;;;;5044582;28;19979;-77
2022/04/29 01:11:02;;;;;;;;;;;;;;;;;;5043243;28;19915;-77
2022/04/29 01:13:48;;;;;;;;;;;;;;;;;;5050722;28;19919;-77
2022/04/29 01:16:34;;;;;;;;;;;;;;;;;;5037790;28;20647;-77
2022/04/29 01:19:21;;;;;;;;;;;;;;;;;;5047608;28;19909;-77
2022/04/29 01:22:08;;;;;;;;;;;;;;;;;;5048158;28;19931;-77
2022/04/29 01:24:54;;;;;;;;;;;;;;;;;;5031498;28;19932;-77
2022/04/29 01:27:41;;;;;;;;;;;;;;;;;;5042027;28;19909;-76
2022/04/29 01:30:27;;;;;;;;;;;;;;;;;;5041839;28;19909;-75
2022/04/29 01:33:14;;;;;;;;;;;;;;;;;;5048219;28;19917;-77
2022/04/29 01:36:00;;;;;;;;;;;;;;;;;;5051208;28;19916;-76
2022/04/29 01:38:47;;;;;;;;;;;;;;;;;;5036317;28;19917;-77
2022/04/29 01:41:34;;;;;;;;;;;;;;;;;;5045520;28;19913;-77
2022/04/29 01:44:20;;;;;;;;;;;;;;;;;;5039603;28;19916;-77
2022/04/29 01:47:07;;;;;;;;;;;;;;;;;;5050270;28;19920;-76
2022/04/29 01:49:53;;;;;;;;;;;;;;;;;;5064907;28;19913;-76
2022/04/29 01:52:40;;;;;;;;;;;;;;;;;;5052406;28;19912;-76
2022/04/29 01:55:26;;;;;;;;;;;;;;;;;;5049826;28;19909;-76
2022/04/29 01:58:13;;;;;;;;;;;;;;;;;;5036463;28;19939;-76
2022/04/29 02:00:59;;;;;;;;;;;;;;;;;;5044366;28;19920;-76
2022/04/29 02:03:46;;;;;;;;;;;;;;;;;;5046259;28;19909;-76
2022/04/29 02:06:32;;;;;;;;;;;;;;;;;;5039530;28;19935;-76
2022/04/29 02:09:19;;;;;;;;;;;;;;;;;;5042883;28;19909;-76
2022/04/29 02:12:05;;;;;;;;;;;;;;;;;;5048835;28;19919;-76
2022/04/29 02:14:52;;;;;;;;;;;;;;;;;;5049742;28;19908;-76
2022/04/29 02:17:38;;;;;;;;;;;;;;;;;;5050218;28;19915;-76
2022/04/29 02:20:25;;;;;;;;;;;;;;;;;;5039039;28;19924;-76
2022/04/29 02:23:11;;;;;;;;;;;;;;;;;;5032320;28;19936;-76
2022/04/29 02:25:58;;;;;;;;;;;;;;;;;;5033278;28;19917;-76
2022/04/29 02:28:44;;;;;;;;;;;;;;;;;;5040572;28;19917;-75
2022/04/29 02:31:31;;;;;;;;;;;;;;;;;;5050072;28;19928;-76
2022/04/29 02:34:17;;;;;;;;;;;;;;;;;;5050913;28;20284;-76
2022/04/29 02:37:04;;;;;;;;;;;;;;;;;;5044452;28;19921;-78
2022/04/29 02:39:50;;;;;;;;;;;;;;;;;;5043404;28;20009;-77
2022/04/29 02:42:37;;;;;;;;;;;;;;;;;;5044929;28;20499;-76
2022/04/29 02:45:23;;;;;;;;;;;;;;;;;;5046099;28;19924;-76
2022/04/29 02:48:10;;;;;;;;;;;;;;;;;;5049905;28;20343;-77
2022/04/29 02:50:56;;;;;;;;;;;;;;;;;;5050428;28;19928;-76
2022/04/29 02:53:42;;;;;;;;;;;;;;;;;;5046250;28;19909;-77
2022/04/29 02:56:29;;;;;;;;;;;;;;;;;;5040014;28;19913;-77
2022/04/29 02:59:15;;;;;;;;;;;;;;;;;;5031481;28;19913;-77
2022/04/29 03:02:03;;;;;;;;;;;;;;;;;;5026278;28;19936;-77
2022/04/29 03:04:49;;;;;;;;;;;;;;;;;;5030808;28;19924;-76
2022/04/29 03:07:36;;;;;;;;;;;;;;;;;;5033677;28;19909;-77
2022/04/29 03:10:22;;;;;;;;;;;;;;;;;;5050791;28;19921;-76
2022/04/29 03:13:09;;;;;;;;;;;;;;;;;;5049451;28;19913;-76
2022/04/29 03:15:59;;;;;;;;;;;;;;;;;;5036346;28;19909;-77
2022/04/29 03:18:45;;;;;;;;;;;;;;;;;;5033858;28;19920;-76
2022/04/29 03:21:33;;;;;;;;;;;;;;;;;;5037427;28;19912;-81
2022/04/29 03:24:19;;;;;;;;;;;;;;;;;;5054377;28;19913;-76
2022/04/29 03:27:06;;;;;;;;;;;;;;;;;;5051211;28;19909;-78
2022/04/29 03:29:52;;;;;;;;;;;;;;;;;;5043617;28;19913;-77
2022/04/29 03:32:54;;;;;;;;;;;;;;;;;;5045775;28;19932;-75
2022/04/29 03:35:47;;;;;;;;;;;;;;;;;;5040789;28;19913;-75
2022/04/29 03:38:35;;;;;;;;;;;;;;;;;;5031416;28;19924;-75
2022/04/29 03:41:21;;;;;;;;;;;;;;;;;;5048970;28;19910;-76
2022/04/29 03:47:16;;;;;;;;;;;;;;;;;;5042936;28;19920;-77
2022/04/29 03:50:02;;;;;;;;;;;;;;;;;;5037917;28;19909;-75
2022/04/29 03:52:49;;;;;;;;;;;;;;;;;;5029791;28;19913;-75
2022/04/29 03:55:35;;;;;;;;;;;;;;;;;;5041732;28;19919;-75
2022/04/29 03:58:22;;;;;;;;;;;;;;;;;;5037014;28;19919;-75
2022/04/29 04:01:08;;;;;;;;;;;;;;;;;;5032206;28;19909;-75
2022/04/29 04:03:55;;;;;;;;;;;;;;;;;;5037591;28;20316;-75
2022/04/29 04:06:50;;;;;;;;;;;;;;;;;;5032560;28;19917;-75
2022/04/29 04:09:39;;;;;;;;;;;;;;;;;;5049005;28;19924;-75
2022/04/29 04:12:25;;;;;;;;;;;;;;;;;;5040777;28;19913;-76
2022/04/29 04:15:12;;;;;;;;;;;;;;;;;;5045632;28;19913;-76
2022/04/29 04:17:59;;;;;;;;;;;;;;;;;;5045445;28;19921;-75
2022/04/29 04:20:48;;;;;;;;;;;;;;;;;;5041096;28;20284;-76
2022/04/29 04:23:35;;;;;;;;;;;;;;;;;;5041106;28;19917;-76
2022/04/29 04:26:22;;;;;;;;;;;;;;;;;;5054810;28;19924;-75
2022/04/29 04:29:08;;;;;;;;;;;;;;;;;;5046999;28;19921;-75
2022/04/29 04:31:54;;;;;;;;;;;;;;;;;;5050482;28;19967;-75
2022/04/29 04:34:50;;;;;;;;;;;;;;;;;;5057657;28;20593;-75
2022/04/29 04:37:36;;;;;;;;;;;;;;;;;;5054030;28;19932;-75
2022/04/29 04:40:23;;;;;;;;;;;;;;;;;;5050889;28;19921;-76
2022/04/29 04:43:09;;;;;;;;;;;;;;;;;;5050118;28;19920;-76
2022/04/29 04:45:56;;;;;;;;;;;;;;;;;;5029891;28;19923;-75
2022/04/29 04:48:43;;;;;;;;;;;;;;;;;;5036761;28;19913;-75
2022/04/29 04:51:29;;;;;;;;;;;;;;;;;;5043279;28;19920;-75
2022/04/29 04:54:15;;;;;;;;;;;;;;;;;;5054610;28;20377;-76
2022/04/29 04:57:02;;;;;;;;;;;;;;;;;;5040253;28;19909;-76
2022/04/29 04:59:48;;;;;;;;;;;;;;;;;;5050411;28;20159;-75
2022/04/29 05:02:35;;;;;;;;;;;;;;;;;;5051198;28;19917;-76
2022/04/29 05:05:21;;;;;;;;;;;;;;;;;;5049032;28;20290;-75
2022/04/29 05:08:08;;;;;;;;;;;;;;;;;;5060709;28;19916;-75
2022/04/29 05:10:54;;;;;;;;;;;;;;;;;;5060849;28;19913;-75
2022/04/29 05:13:41;;;;;;;;;;;;;;;;;;5053016;28;19919;-74
2022/04/29 05:16:27;;;;;;;;;;;;;;;;;;5048522;28;19948;-75
2022/04/29 05:19:14;;;;;;;;;;;;;;;;;;5048820;28;20384;-77
2022/04/29 05:22:00;;;;;;;;;;;;;;;;;;5043318;28;19912;-77
2022/04/29 05:24:47;;;;;;;;;;;;;;;;;;5043364;28;19916;-75
2022/04/29 05:27:34;;;;;;;;;;;;;;;;;;5052770;28;19921;-75
2022/04/29 05:30:20;;;;;;;;;;;;;;;;;;5038805;28;19919;-74
2022/04/29 05:33:09;;;;;;;;;;;;;;;;;;5043506;28;21800;-76
2022/04/29 05:35:55;;;;;;;;;;;;;;;;;;5050882;28;19917;-76
2022/04/29 05:44:52;;;;;;;;;;;;;;;;;;5046550;28;19917;-76
2022/04/29 05:47:38;;;;;;;;;;;;;;;;;;5051626;28;19915;-76
2022/04/29 05:50:25;;;;;;;;;;;;;;;;;;5051435;28;19924;-76
2022/04/29 05:53:11;;;;;;;;;;;;;;;;;;5051351;28;20616;-77
2022/04/29 05:55:58;;;;;;;;;;;;;;;;;;5042804;28;20379;-77
2022/04/29 05:58:45;;;;;;;;;;;;;;;;;;5032688;28;19919;-76
2022/04/29 06:01:31;;;;;;;;;;;;;;;;;;5051284;28;19909;-76
2022/04/29 06:04:18;;;;;;;;;;;;;;;;;;5048725;28;19913;-76
2022/04/29 06:07:04;;;;;;;;;;;;;;;;;;5053633;28;19913;-75
2022/04/29 06:09:51;;;;;;;;;;;;;;;;;;5063228;28;19980;-77
2022/04/29 06:12:39;;;;;;;;;;;;;;;;;;5022403;28;19915;-75
2022/04/29 06:15:25;;;;;;;;;;;;;;;;;;5048117;28;19921;-76
2022/04/29 06:18:12;;;;;;;;;;;;;;;;;;5040848;28;19912;-76
2022/04/29 06:20:58;;;;;;;;;;;;;;;;;;5039715;28;19936;-76
2022/04/29 06:23:44;;;;;;;;;;;;;;;;;;5052148;28;19927;-76
2022/04/29 06:26:31;;;;;;;;;;;;;;;;;;5063118;28;19917;-75
2022/04/29 06:29:17;;;;;;;;;;;;;;;;;;5044920;28;19924;-77
2022/04/29 06:32:04;;;;;;;;;;;;;;;;;;5034725;28;19921;-77
2022/04/29 06:34:50;;;;;;;;;;;;;;;;;;5055850;28;20252;-76
2022/04/29 06:37:37;;;;;;;;;;;;;;;;;;5036368;28;19921;-75
2022/04/29 06:40:23;;;;;;;;;;;;;;;;;;5023685;28;19920;-76
2022/04/29 06:43:10;;;;;;;;;;;;;;;;;;5026209;28;19920;-75
2022/04/29 06:45:56;;;;;;;;;;;;;;;;;;5040574;28;19921;-78
2022/04/29 06:48:43;;;;;;;;;;;;;;;;;;5048495;28;19915;-78
2022/04/29 06:51:29;;;;;;;;;;;;;;;;;;5060801;28;20470;-77
2022/04/29 06:54:16;;;;;;;;;;;;;;;;;;5042145;28;19913;-78
2022/04/29 06:57:02;;;;;;;;;;;;;;;;;;5033250;28;19913;-77
2022/04/29 06:59:52;;;;;;;;;;;;;;;;;;5054638;28;19917;-76
2022/04/29 07:02:38;;;;;;;;;;;;;;;;;;5047111;28;19913;-77
2022/04/29 07:05:25;;;;;;;;;;;;;;;;;;5060817;28;19923;-76
2022/04/29 07:08:13;;;;;;;;;;;;;;;;;;5036400;28;19920;-78
2022/04/29 07:11:00;;;;;;;;;;;;;;;;;;5034721;28;20405;-78
2022/04/29 07:13:46;;;;;;;;;;;;;;;;;;5049987;28;19910;-78
2022/04/29 07:16:33;;;;;;;;;;;;;;;;;;5019733;28;20437;-78
2022/04/29 07:19:19;;;;;;;;;;;;;;;;;;5058032;28;19909;-79
2022/04/29 07:22:06;;;;;;;;;;;;;;;;;;5044330;28;20221;-77
2022/04/29 07:24:52;;;;;;;;;;;;;;;;;;5059794;28;19912;-77
2022/04/29 07:27:40;;;;;;;;;;;;;;;;;;5040542;28;20277;-77
2022/04/29 07:30:26;;;;;;;;;;;;;;;;;;5060514;28;19939;-77
2022/04/29 07:33:13;;;;;;;;;;;;;;;;;;5038564;28;19920;-79
2022/04/29 07:42:26;;;;;;;;;;;;;;;;;;5014459;28;19919;-78
2022/04/29 07:45:13;;;;;;;;;;;;;;;;;;5041089;28;19917;-78
2022/04/29 07:48:00;;;;;;;;;;;;;;;;;;5045671;28;19909;-78
2022/04/29 07:50:46;;;;;;;;;;;;;;;;;;5037803;28;20329;-78
2022/04/29 07:53:34;;;;;;;;;;;;;;;;;;5047649;28;20289;-78
2022/04/29 07:56:20;;;;;;;;;;;;;;;;;;5043738;28;20431;-78
2022/04/29 07:59:07;;;;;;;;;;;;;;;;;;5045978;28;19920;-77
2022/04/29 08:01:54;;;;;;;;;;;;;;;;;;5034404;28;19909;-78
2022/04/29 08:04:40;;;;;;;;;;;;;;;;;;5045628;28;19967;-78
2022/04/29 08:07:27;;;;;;;;;;;;;;;;;;5047646;28;19921;-78
2022/04/29 08:10:13;;;;;;;;;;;;;;;;;;5050844;28;19916;-78
2022/04/29 08:13:00;;;;;;;;;;;;;;;;;;5045424;28;20662;-77
2022/04/29 08:15:48;;;;;;;;;;;;;;;;;;5046430;28;19909;-78
2022/04/29 08:18:34;;;;;;;;;;;;;;;;;;5058317;28;19917;-78
2022/04/29 08:21:21;;;;;;;;;;;;;;;;;;5036691;28;19909;-78
2022/04/29 08:24:07;;;;;;;;;;;;;;;;;;5046553;28;19910;-78
2022/04/29 08:26:54;;;;;;;;;;;;;;;;;;5043210;28;19927;-78
2022/04/29 08:29:40;;;;;;;;;;;;;;;;;;5037703;28;19916;-78
2022/04/29 08:32:27;;;;;;;;;;;;;;;;;;5044466;28;19921;-78
2022/04/29 08:35:13;;;;;;;;;;;;;;;;;;5036206;28;20459;-78
2022/04/29 08:38:00;;;;;;;;;;;;;;;;;;5049253;28;20556;-78
2022/04/29 08:40:47;;;;;;;;;;;;;;;;;;5050779;28;19909;-78
2022/04/29 08:43:33;;;;;;;;;;;;;;;;;;5035848;28;19912;-78
2022/04/29 08:46:20;;;;;;;;;;;;;;;;;;5046727;28;19925;-78
2022/04/29 08:49:09;;;;;;;;;;;;;;;;;;5048608;28;20269;-78
2022/04/29 08:51:56;;;;;;;;;;;;;;;;;;5043141;28;19921;-78
2022/04/29 09:00:54;;;;;;;;;;;;;;;;;;5042780;28;20391;-78
2022/04/29 09:03:40;;;;;;;;;;;;;;;;;;5051452;28;20300;-78
2022/04/29 09:06:27;;;;;;;;;;;;;;;;;;5053039;28;19921;-77
2022/04/29 09:09:13;;;;;;;;;;;;;;;;;;5034474;28;19913;-77
2022/04/29 09:12:00;;;;;;;;;;;;;;;;;;5039770;28;20238;-76
2022/04/29 09:14:46;;;;;;;;;;;;;;;;;;5044402;28;19920;-77
2022/04/29 09:17:33;;;;;;;;;;;;;;;;;;5047167;28;20281;-79
2022/04/29 09:20:19;;;;;;;;;;;;;;;;;;5043407;28;19994;-81
2022/04/29 09:23:08;;;;;;;;;;;;;;;;;;5038670;28;19936;-79
2022/04/29 09:25:56;;;;;;;;;;;;;;;;;;5056480;28;19917;-78
2022/04/29 09:28:42;;;;;;;;;;;;;;;;;;5036373;28;19915;-77
2022/04/29 09:31:29;;;;;;;;;;;;;;;;;;5041418;28;19923;-77
2022/04/29 09:34:15;;;;;;;;;;;;;;;;;;5051222;28;19927;-78
2022/04/29 09:37:02;;;;;;;;;;;;;;;;;;5038576;28;20392;-78
2022/04/29 09:39:48;;;;;;;;;;;;;;;;;;5040668;28;19919;-78
2022/04/29 09:42:35;;;;;;;;;;;;;;;;;;5039868;28;20372;-79
2022/04/29 09:45:23;;;;;;;;;;;;;;;;;;5057035;28;19923;-78
2022/04/29 09:48:09;;;;;;;;;;;;;;;;;;5034832;28;19923;-78
2022/04/29 09:50:55;;;;;;;;;;;;;;;;;;5052056;28;20277;-78
2022/04/29 09:53:42;;;;;;;;;;;;;;;;;;5050391;28;19909;-79
2022/04/29 09:56:28;;;;;;;;;;;;;;;;;;5050166;28;19915;-78
2022/04/29 09:59:15;;;;;;;;;;;;;;;;;;5041161;28;19924;-78
2022/04/29 10:02:01;;;;;;;;;;;;;;;;;;5050429;28;20059;-76
2022/04/29 10:04:48;;;;;;;;;;;;;;;;;;5050425;28;19912;-79
2022/04/29 10:07:34;;;;;;;;;;;;;;;;;;5048573;28;19912;-79
2022/04/29 10:10:21;;;;;;;;;;;;;;;;;;5050854;28;19909;-78
2022/04/29 10:13:07;;;;;;;;;;;;;;;;;;5026211;28;19931;-77
2022/04/29 10:15:54;;;;;;;;;;;;;;;;;;5049839;28;19913;-77
2022/04/29 10:21:45;;;;;;;;;;;;;;;;;;5032552;28;19913;-78
2022/04/29 10:24:31;;;;;;;;;;;;;;;;;;5052221;28;19920;-79
2022/04/29 10:27:18;;;;;;;;;;;;;;;;;;5038188;28;20304;-77
2022/04/29 10:30:04;;;;;;;;;;;;;;;;;;5038318;28;19917;-77
2022/04/29 10:32:51;;;;;;;;;;;;;;;;;;5063847;28;19932;-77
2022/04/29 10:35:37;;;;;;;;;;;;;;;;;;5049856;28;19916;-77
2022/04/29 10:38:24;;;;;;;;;;;;;;;;;;5050926;28;19931;-77
2022/04/29 10:41:11;;;;;;;;;;;;;;;;;;5049761;28;20462;-77
2022/04/29 10:43:58;;;;;;;;;;;;;;;;;;5049563;28;20448;-78
2022/04/29 10:46:44;;;;;;;;;;;;;;;;;;5048662;28;19928;-78
2022/04/29 10:49:31;;;;;;;;;;;;;;;;;;5051163;28;20301;-78
2022/04/29 10:52:17;;;;;;;;;;;;;;;;;;5058349;28;19915;-78
2022/04/29 10:55:04;;;;;;;;;;;;;;;;;;5051250;28;19908;-77
2022/04/29 10:57:50;;;;;;;;;;;;;;;;;;5050466;28;19913;-78
2022/04/29 11:00:36;;;;;;;;;;;;;;;;;;5060740;28;19917;-78
2022/04/29 11:03:23;;;;;;;;;;;;;;;;;;5057844;28;19918;-78
2022/04/29 11:06:09;;;;;;;;;;;;;;;;;;5038226;28;20370;-77
2022/04/29 11:08:56;;;;;;;;;;;;;;;;;;5050575;28;20532;-78
2022/04/29 11:11:42;;;;;;;;;;;;;;;;;;5049852;28;19916;-78
2022/04/29 11:14:29;;;;;;;;;;;;;;;;;;5036243;28;19939;-77
2022/04/29 11:17:16;;;;;;;;;;;;;;;;;;5053378;28;20304;-78
2022/04/29 11:20:03;;;;;;;;;;;;;;;;;;5048932;28;20281;-77
2022/04/29 11:25:54;;;;;;;;;;;;;;;;;;5045558;28;19921;-76
2022/04/29 11:28:41;;;;;;;;;;;;;;;;;;5040654;28;19913;-77
2022/04/29 11:31:27;;;;;;;;;;;;;;;;;;5030221;28;19917;-77
2022/04/29 11:34:14;;;;;;;;;;;;;;;;;;5030701;28;19913;-77
2022/04/29 11:37:00;;;;;;;;;;;;;;;;;;5036911;28;19920;-76
2022/04/29 11:39:47;;;;;;;;;;;;;;;;;;5050674;28;19926;-76
2022/04/29 11:42:33;;;;;;;;;;;;;;;;;;5050739;28;20456;-76
2022/04/29 11:45:20;;;;;;;;;;;;;;;;;;5047915;28;19991;-78
2022/04/29 11:48:06;;;;;;;;;;;;;;;;;;5032362;28;19917;-78
2022/04/29 11:50:53;;;;;;;;;;;;;;;;;;5038551;28;19913;-77
2022/04/29 11:53:39;;;;;;;;;;;;;;;;;;5059128;28;19924;-78
2022/04/29 11:56:26;;;;;;;;;;;;;;;;;;5043837;28;19924;-77
2022/04/29 11:59:12;;;;;;;;;;;;;;;;;;5047239;28;19915;-78
2022/04/29 12:01:59;;;;;;;;;;;;;;;;;;5059656;28;20011;-79
2022/04/29 12:04:45;;;;;;;;;;;;;;;;;;5048110;28;19913;-77
2022/04/29 12:07:32;;;;;;;;;;;;;;;;;;5042680;28;19925;-76
2022/04/29 12:10:18;;;;;;;;;;;;;;;;;;5037850;28;19920;-79
2022/04/29 12:13:05;;;;;;;;;;;;;;;;;;5060049;28;19908;-77
2022/04/29 12:15:51;;;;;;;;;;;;;;;;;;5033074;28;19917;-77
2022/04/29 12:18:38;;;;;;;;;;;;;;;;;;5038010;28;20335;-76
2022/04/29 12:21:24;;;;;;;;;;;;;;;;;;5032729;28;19914;-77
2022/04/29 12:24:11;;;;;;;;;;;;;;;;;;5041569;28;19939;-78
2022/04/29 12:26:57;;;;;;;;;;;;;;;;;;5034022;28;19928;-77
2022/04/29 12:34:48;;;;;;;;;;;;;;;;;;5034118;28;20249;-77
2022/04/29 12:35:59;;;;;;;;;;;;;;;;;;5034051;28;19927;-78
2022/04/29 12:38:46;;;;;;;;;;;;;;;;;;5033266;28;19913;-78
2022/04/29 12:41:33;;;;;;;;;;;;;;;;;;5043670;28;19917;-77
2022/04/29 12:47:25;;;;;;;;;;;;;;;;;;5043210;28;19925;-78
2022/04/29 12:50:14;;;;;;;;;;;;;;;;;;5041033;28;20377;-77
2022/04/29 12:53:01;;;;;;;;;;;;;;;;;;5043978;28;19913;-80
2022/04/29 12:55:47;;;;;;;;;;;;;;;;;;5043177;28;19935;-79
2022/04/29 12:58:42;;;;;;;;;;;;;;;;;;5037147;28;19985;-82
2022/04/29 13:01:29;;;;;;;;;;;;;;;;;;5041217;28;19913;-79
2022/04/29 13:04:15;;;;;;;;;;;;;;;;;;5038999;28;19913;-80
2022/04/29 13:07:02;;;;;;;;;;;;;;;;;;5034649;28;19920;-78
2022/04/29 13:09:48;;;;;;;;;;;;;;;;;;5046016;28;19913;-78
2022/04/29 13:12:35;;;;;;;;;;;;;;;;;;5040600;28;19916;-77
2022/04/29 13:15:21;;;;;;;;;;;;;;;;;;5040963;28;19913;-79
2022/04/29 13:18:08;;;;;;;;;;;;;;;;;;5054682;28;19913;-78
2022/04/29 13:20:54;;;;;;;;;;;;;;;;;;5046007;28;19913;-79
2022/04/29 13:23:41;;;;;;;;;;;;;;;;;;5033537;28;19917;-79
2022/04/29 13:26:27;;;;;;;;;;;;;;;;;;5036250;28;19929;-79
2022/04/29 13:29:17;;;;;;;;;;;;;;;;;;5056520;28;20353;-79
2022/04/29 13:32:03;;;;;;;;;;;;;;;;;;5039479;28;19940;-77
2022/04/29 13:34:50;;;;;;;;;;;;;;;;;;5038179;28;20268;-78
2022/04/29 13:37:39;;;;;;;;;;;;;;;;;;5047768;28;20012;-77
2022/04/29 13:40:25;;;;;;;;;;;;;;;;;;5048336;28;19921;-81
2022/04/29 13:43:15;;;;;;;;;;;;;;;;;;5043179;28;19941;-82
2022/04/29 13:46:05;;;;;;;;;;;;;;;;;;5055628;28;20266;-81
2022/04/29 13:48:52;;;;;;;;;;;;;;;;;;5051287;28;19916;-79
2022/04/29 13:51:38;;;;;;;;;;;;;;;;;;5058974;28;19913;-80
2022/04/29 13:54:25;;;;;;;;;;;;;;;;;;5058378;28;19909;-80
2022/04/29 13:57:11;;;;;;;;;;;;;;;;;;5040282;28;19909;-81
2022/04/29 13:59:58;;;;;;;;;;;;;;;;;;5038238;28;19909;-82
2022/04/29 14:02:44;;;;;;;;;;;;;;;;;;5031789;28;20371;-82
2022/04/29 14:05:32;;;;;;;;;;;;;;;;;;5048261;28;19928;-82
2022/04/29 14:08:18;;;;;;;;;;;;;;;;;;5040734;28;19923;-82
2022/04/29 14:11:05;;;;;;;;;;;;;;;;;;5035711;28;19915;-81
2022/04/29 14:13:51;;;;;;;;;;;;;;;;;;5044160;28;19919;-81
2022/04/29 14:16:37;;;;;;;;;;;;;;;;;;5043424;28;19924;-82
2022/04/29 14:19:24;;;;;;;;;;;;;;;;;;5040860;28;20318;-81
2022/04/29 14:22:10;;;;;;;;;;;;;;;;;;5040064;28;19917;-80
2022/04/29 14:24:57;;;;;;;;;;;;;;;;;;5049228;28;19917;-80
2022/04/29 14:27:44;;;;;;;;;;;;;;;;;;5042364;28;20312;-78
2022/04/29 14:30:30;;;;;;;;;;;;;;;;;;5060175;28;20400;-81
2022/04/29 14:33:17;;;;;;;;;;;;;;;;;;5051954;28;19927;-82
2022/04/29 14:36:05;;;;;;;;;;;;;;;;;;5053037;28;20473;-83
2022/04/29 14:38:51;;;;;;;;;;;;;;;;;;5034769;28;19989;-82
2022/04/29 14:41:38;;;;;;;;;;;;;;;;;;5037909;28;19919;-82
2022/04/29 14:44:24;;;;;;;;;;;;;;;;;;5040635;28;19909;-82
2022/04/29 14:47:10;;;;;;;;;;;;;;;;;;5040880;28;19932;-83
2022/04/29 14:49:57;;;;;;;;;;;;;;;;;;5038467;28;20408;-84
2022/04/29 14:52:44;;;;;;;;;;;;;;;;;;5045774;28;19909;-83
2022/04/29 14:55:30;;;;;;;;;;;;;;;;;;5036894;28;20296;-79
2022/04/29 14:58:19;;;;;;;;;;;;;;;;;;5031572;28;20280;-79
2022/04/29 15:01:06;;;;;;;;;;;;;;;;;;5039379;28;19913;-78
2022/04/29 15:03:52;;;;;;;;;;;;;;;;;;5043152;28;19986;-80
2022/04/29 15:06:41;;;;;;;;;;;;;;;;;;5041431;28;20285;-79
2022/04/29 15:15:42;;;;;;;;;;;;;;;;;;5036300;28;20492;-78
2022/04/29 15:18:29;;;;;;;;;;;;;;;;;;5037066;28;19909;-78
2022/04/29 15:21:15;;;;;;;;;;;;;;;;;;5044915;28;19916;-77
2022/04/29 15:24:02;;;;;;;;;;;;;;;;;;5038062;28;19932;-77
2022/04/29 15:26:48;;;;;;;;;;;;;;;;;;5038604;28;19927;-79
2022/04/29 15:29:35;;;;;;;;;;;;;;;;;;5041046;28;20392;-78
2022/04/29 15:32:21;;;;;;;;;;;;;;;;;;5032192;28;19925;-80
2022/04/29 15:35:08;;;;;;;;;;;;;;;;;;5043937;28;19923;-79
2022/04/29 15:37:54;;;;;;;;;;;;;;;;;;5048281;28;19912;-78
2022/04/29 15:40:41;;;;;;;;;;;;;;;;;;5036410;28;19960;-79
2022/04/29 15:43:27;;;;;;;;;;;;;;;;;;5045486;28;20397;-79
2022/04/29 15:46:14;;;;;;;;;;;;;;;;;;5044218;28;19965;-78
2022/04/29 15:49:00;;;;;;;;;;;;;;;;;;5029619;28;20012;-78
2022/04/29 15:51:47;;;;;;;;;;;;;;;;;;5059088;28;20387;-78
2022/04/29 15:54:33;;;;;;;;;;;;;;;;;;5047299;28;19921;-78
2022/04/29 15:57:20;;;;;;;;;;;;;;;;;;5042043;28;19951;-78
2022/04/29 16:00:06;;;;;;;;;;;;;;;;;;5048168;28;19909;-78
2022/04/29 16:02:52;;;;;;;;;;;;;;;;;;5041916;28;19917;-77
2022/04/29 16:05:39;;;;;;;;;;;;;;;;;;5033909;28;20365;-78
2022/04/29 16:08:25;;;;;;;;;;;;;;;;;;5033577;28;19917;-79
2022/04/29 16:11:12;;;;;;;;;;;;;;;;;;5045422;28;19909;-77
2022/04/29 16:13:59;;;;;;;;;;;;;;;;;;5034018;28;20360;-79
2022/04/29 16:16:45;;;;;;;;;;;;;;;;;;5037124;28;19913;-78
2022/04/29 16:25:43;;;;;;;;;;;;;;;;;;5039148;28;19916;-78
2022/04/29 16:28:29;;;;;;;;;;;;;;;;;;5039400;28;19977;-78
2022/04/29 16:31:16;;;;;;;;;;;;;;;;;;5034335;28;19944;-79
2022/04/29 16:34:02;;;;;;;;;;;;;;;;;;5037433;28;19917;-78
2022/04/29 16:36:51;;;;;;;;;;;;;;;;;;5033030;28;19920;-78
2022/04/29 16:39:37;;;;;;;;;;;;;;;;;;5041667;28;19923;-77
2022/04/29 16:42:24;;;;;;;;;;;;;;;;;;5040544;28;19913;-78
2022/04/29 16:45:10;;;;;;;;;;;;;;;;;;5038583;28;19917;-78
2022/04/29 16:47:57;;;;;;;;;;;;;;;;;;5041927;28;20327;-78
2022/04/29 16:50:44;;;;;;;;;;;;;;;;;;5041127;28;19912;-78
2022/04/29 16:53:31;;;;;;;;;;;;;;;;;;5058782;28;19921;-77
2022/04/29 16:56:17;;;;;;;;;;;;;;;;;;5042323;28;19980;-77
2022/04/29 16:59:04;;;;;;;;;;;;;;;;;;5040487;28;19913;-77
2022/04/29 17:01:50;;;;;;;;;;;;;;;;;;5051807;28;19920;-78
2022/04/29 17:04:37;;;;;;;;;;;;;;;;;;5034928;28;19921;-78
2022/04/29 17:07:24;;;;;;;;;;;;;;;;;;5037602;28;19936;-78
2022/04/29 17:10:10;;;;;;;;;;;;;;;;;;5031026;28;20335;-78
2022/04/29 17:12:57;;;;;;;;;;;;;;;;;;5055940;28;19912;-78
2022/04/29 17:15:44;;;;;;;;;;;;;;;;;;5045293;28;20280;-78
2022/04/29 17:18:30;;;;;;;;;;;;;;;;;;5050978;28;19913;-79
2022/04/29 17:21:17;;;;;;;;;;;;;;;;;;5055910;28;19908;-82
2022/04/29 17:24:03;;;;;;;;;;;;;;;;;;5035572;28;21276;-78
2022/04/29 17:26:50;;;;;;;;;;;;;;;;;;5033871;28;19929;-78
2022/04/29 17:29:36;;;;;;;;;;;;;;;;;;5035923;28;19915;-78
2022/04/29 17:32:23;;;;;;;;;;;;;;;;;;5041779;28;19929;-78
2022/04/29 17:35:09;;;;;;;;;;;;;;;;;;5035255;28;19917;-77
2022/04/29 17:37:56;;;;;;;;;;;;;;;;;;5033924;28;19920;-78
2022/04/29 17:43:47;;;;;;;;;;;;;;;;;;5035656;28;19916;-79
2022/04/29 17:46:34;;;;;;;;;;;;;;;;;;5046279;28;19927;-77
2022/04/29 17:49:20;;;;;;;;;;;;;;;;;;5039664;28;19924;-78
2022/04/29 17:52:07;;;;;;;;;;;;;;;;;;5042023;28;19913;-77
2022/04/29 17:54:53;;;;;;;;;;;;;;;;;;5041574;28;19917;-78
2022/04/29 17:57:40;;;;;;;;;;;;;;;;;;5035867;28;19917;-76
2022/04/29 18:00:26;;;;;;;;;;;;;;;;;;5050758;28;19920;-76
2022/04/29 18:03:13;;;;;;;;;;;;;;;;;;5034572;28;19916;-77
2022/04/29 18:05:59;;;;;;;;;;;;;;;;;;5033918;28;20465;-77
2022/04/29 18:08:46;;;;;;;;;;;;;;;;;;5032408;28;20030;-80
2022/04/29 18:11:33;;;;;;;;;;;;;;;;;;5033085;28;19913;-77
2022/04/29 18:14:19;;;;;;;;;;;;;;;;;;5039211;28;19920;-76
2022/04/29 18:17:06;;;;;;;;;;;;;;;;;;5043959;28;20002;-75
2022/04/29 18:19:53;;;;;;;;;;;;;;;;;;5049718;28;19919;-76
2022/04/29 18:22:39;;;;;;;;;;;;;;;;;;5049513;28;20254;-76
2022/04/29 18:25:28;;;;;;;;;;;;;;;;;;5055862;28;19923;-76
2022/04/29 18:28:16;;;;;;;;;;;;;;;;;;5040998;28;19916;-76
2022/04/29 18:31:02;;;;;;;;;;;;;;;;;;5049814;28;19921;-77
2022/04/29 18:33:49;;;;;;;;;;;;;;;;;;5028129;28;19935;-78
2022/04/29 18:36:35;;;;;;;;;;;;;;;;;;5027732;28;19913;-77
2022/04/29 18:39:22;;;;;;;;;;;;;;;;;;5029692;28;19910;-78
2022/04/29 18:42:08;;;;;;;;;;;;;;;;;;5013507;28;20139;-79
2022/04/29 18:44:54;;;;;;;;;;;;;;;;;;5023058;28;19940;-78
2022/04/29 18:47:41;;;;;;;;;;;;;;;;;;5024858;28;20300;-79
2022/04/29 18:50:27;;;;;;;;;;;;;;;;;;5024858;28;19913;-79
2022/04/29 18:53:14;;;;;;;;;;;;;;;;;;5016841;28;19913;-79
2022/04/29 18:56:00;;;;;;;;;;;;;;;;;;5020932;28;19935;-80
2022/04/29 18:58:47;;;;;;;;;;;;;;;;;;5032786;28;20219;-78
2022/04/29 19:01:33;;;;;;;;;;;;;;;;;;5029504;28;19919;-78
2022/04/29 19:04:21;;;;;;;;;;;;;;;;;;5012658;28;19920;-79
2022/04/29 19:07:07;;;;;;;;;;;;;;;;;;5028781;28;19921;-78
2022/04/29 19:09:54;;;;;;;;;;;;;;;;;;5023720;28;20008;-77
2022/04/29 19:12:40;;;;;;;;;;;;;;;;;;5018133;28;20266;-77
2022/04/29 19:15:27;;;;;;;;;;;;;;;;;;5035362;28;19920;-75
2022/04/29 19:18:13;;;;;;;;;;;;;;;;;;5033339;28;20391;-78
2022/04/29 19:21:00;;;;;;;;;;;;;;;;;;5006257;28;19909;-74
2022/04/29 19:23:46;;;;;;;;;;;;;;;;;;5024235;28;19913;-82
2022/04/29 19:26:33;;;;;;;;;;;;;;;;;;5003321;28;19917;-81
2022/04/29 19:29:19;;;;;;;;;;;;;;;;;;5025286;28;19913;-78
2022/04/29 19:32:06;;;;;;;;;;;;;;;;;;5035646;28;19932;-79
2022/04/29 19:34:52;;;;;;;;;;;;;;;;;;5044534;28;19916;-78
2022/04/29 19:37:38;;;;;;;;;;;;;;;;;;5040364;28;20303;-80
2022/04/29 19:40:25;;;;;;;;;;;;;;;;;;5034747;28;19915;-79
2022/04/29 19:46:24;;;;;;;;;;;;;;;;;;5036942;28;20448;-79
2022/04/29 19:49:13;;;;;;;;;;;;;;;;;;5043756;28;19921;-79
2022/04/29 19:52:00;;;;;;;;;;;;;;;;;;5025787;28;19923;-80